sensor_id;sensor_type;location;lat;lon;timestamp;pressure;altitude;pressure_sealevel;temperature;humidity
9335;BME280;4706;41.844;26.082;2024-01-10T00:01:18;102098.88;;;1.97;61.82
9335;BME280;4706;41.844;26.082;2024-01-10T00:03:43;102088.88;;;2.10;62.04
9335;BME280;4706;41.844;26.082;2024-01-10T00:06:12;102075.91;;;1.92;62.44
9335;BME280;4706;41.844;26.082;2024-01-10T00:08:38;102084.69;;;1.94;63.35
9335;BME280;4706;41.844;26.082;2024-01-10T00:11:04;102101.41;;;2.11;59.96
9335;BME280;4706;41.844;26.082;2024-01-10T00:13:34;102090.94;;;2.02;63.17
9335;BME280;4706;41.844;26.082;2024-01-10T00:16:00;102103.06;;;2.06;63.09
9335;BME280;4706;41.844;26.082;2024-01-10T00:18:25;102103.47;;;1.96;60.70
9335;BME280;4706;41.844;26.082;2024-01-10T00:20:51;102108.09;;;2.09;59.29
9335;BME280;4706;41.844;26.082;2024-01-10T00:23:19;102108.53;;;2.19;58.69
9335;BME280;4706;41.844;26.082;2024-01-10T00:25:46;102105.81;;;2.19;58.62
9335;BME280;4706;41.844;26.082;2024-01-10T00:28:11;102105.16;;;2.10;59.95
9335;BME280;4706;41.844;26.082;2024-01-10T00:30:38;102135.25;;;2.22;59.36
9335;BME280;4706;41.844;26.082;2024-01-10T00:33:04;102132.53;;;2.22;56.32
9335;BME280;4706;41.844;26.082;2024-01-10T00:35:31;102138.38;;;2.32;58.18
9335;BME280;4706;41.844;26.082;2024-01-10T00:37:56;102142.78;;;2.33;59.13
9335;BME280;4706;41.844;26.082;2024-01-10T00:40:22;102136.09;;;2.36;59.69
9335;BME280;4706;41.844;26.082;2024-01-10T00:42:48;102146.34;;;2.47;59.46
9335;BME280;4706;41.844;26.082;2024-01-10T00:45:14;102143.81;;;2.59;58.40
9335;BME280;4706;41.844;26.082;2024-01-10T00:47:39;102140.50;;;2.57;57.67
9335;BME280;4706;41.844;26.082;2024-01-10T00:50:05;102139.66;;;2.56;57.81
9335;BME280;4706;41.844;26.082;2024-01-10T00:52:31;102139.03;;;2.61;58.06
9335;BME280;4706;41.844;26.082;2024-01-10T00:54:56;102139.03;;;2.61;55.28
9335;BME280;4706;41.844;26.082;2024-01-10T00:57:22;102136.13;;;2.56;54.19
9335;BME280;4706;41.844;26.082;2024-01-10T00:59:47;102118.34;;;2.40;52.78
9335;BME280;4706;41.844;26.082;2024-01-10T01:02:13;102140.28;;;2.45;54.54
9335;BME280;4706;41.844;26.082;2024-01-10T01:04:39;102139.84;;;2.35;55.18
9335;BME280;4706;41.844;26.082;2024-01-10T01:07:04;102127.53;;;2.19;56.95
9335;BME280;4706;41.844;26.082;2024-01-10T01:09:29;102144.22;;;2.29;57.10
9335;BME280;4706;41.844;26.082;2024-01-10T01:11:55;102140.47;;;2.37;56.19
9335;BME280;4706;41.844;26.082;2024-01-10T01:14:21;102131.91;;;2.27;58.21
9335;BME280;4706;41.844;26.082;2024-01-10T01:16:46;102112.09;;;2.26;57.96
9335;BME280;4706;41.844;26.082;2024-01-10T01:19:12;102095.34;;;2.09;57.62
9335;BME280;4706;41.844;26.082;2024-01-10T01:21:37;102128.78;;;2.30;58.01
9335;BME280;4706;41.844;26.082;2024-01-10T01:24:04;102135.25;;;2.35;56.77
9335;BME280;4706;41.844;26.082;2024-01-10T01:26:29;102134.22;;;2.43;55.92
9335;BME280;4706;41.844;26.082;2024-01-10T01:28:55;102128.59;;;2.38;55.72
9335;BME280;4706;41.844;26.082;2024-01-10T01:31:20;102131.50;;;2.36;55.54
9335;BME280;4706;41.844;26.082;2024-01-10T01:33:46;102140.47;;;2.37;54.78
9335;BME280;4706;41.844;26.082;2024-01-10T01:36:11;102140.47;;;2.37;56.33
9335;BME280;4706;41.844;26.082;2024-01-10T01:38:37;102125.03;;;2.37;55.72
9335;BME280;4706;41.844;26.082;2024-01-10T01:41:02;102130.69;;;2.49;55.35
9335;BME280;4706;41.844;26.082;2024-01-10T01:43:28;102140.25;;;2.52;53.77
9335;BME280;4706;41.844;26.082;2024-01-10T01:45:55;102127.75;;;2.51;54.30
9335;BME280;4706;41.844;26.082;2024-01-10T01:48:22;102139.25;;;2.46;51.95
9335;BME280;4706;41.844;26.082;2024-01-10T01:50:50;102142.16;;;2.38;54.22
9335;BME280;4706;41.844;26.082;2024-01-10T01:53:17;102143.84;;;2.46;52.14
9335;BME280;4706;41.844;26.082;2024-01-10T01:55:43;102152.41;;;2.42;51.89
9335;BME280;4706;41.844;26.082;2024-01-10T01:58:10;102139.63;;;2.36;53.66
9335;BME280;4706;41.844;26.082;2024-01-10T02:00:36;102152.16;;;2.11;49.88
9335;BME280;4706;41.844;26.082;2024-01-10T02:03:02;102137.13;;;2.15;50.46
9335;BME280;4706;41.844;26.082;2024-01-10T02:05:28;102141.88;;;2.06;50.71
9335;BME280;4706;41.844;26.082;2024-01-10T02:07:54;102146.72;;;2.11;53.27
9335;BME280;4706;41.844;26.082;2024-01-10T02:10:20;102145.69;;;2.18;55.48
9335;BME280;4706;41.844;26.082;2024-01-10T02:12:46;102145.06;;;2.16;55.40
9335;BME280;4706;41.844;26.082;2024-01-10T02:15:13;102139.59;;;2.10;52.10
9335;BME280;4706;41.844;26.082;2024-01-10T02:17:40;102141.50;;;2.16;54.85
9335;BME280;4706;41.844;26.082;2024-01-10T02:20:15;102140.88;;;2.21;56.50
9335;BME280;4706;41.844;26.082;2024-01-10T02:22:44;102138.38;;;2.26;57.40
9335;BME280;4706;41.844;26.082;2024-01-10T02:25:10;102136.72;;;2.31;54.58
9335;BME280;4706;41.844;26.082;2024-01-10T02:27:37;102132.13;;;2.38;56.72
9335;BME280;4706;41.844;26.082;2024-01-10T02:30:04;102135.47;;;2.27;58.01
9335;BME280;4706;41.844;26.082;2024-01-10T02:32:30;102142.59;;;2.41;56.71
9335;BME280;4706;41.844;26.082;2024-01-10T02:34:56;102128.78;;;2.36;57.14
9335;BME280;4706;41.844;26.082;2024-01-10T02:37:22;102128.78;;;2.50;56.64
9335;BME280;4706;41.844;26.082;2024-01-10T02:39:47;102129.22;;;2.53;56.06
9335;BME280;4706;41.844;26.082;2024-01-10T02:42:13;102137.38;;;2.53;55.91
9335;BME280;4706;41.844;26.082;2024-01-10T02:44:38;102133.41;;;2.56;55.11
9335;BME280;4706;41.844;26.082;2024-01-10T02:47:05;102133.38;;;2.62;54.89
9335;BME280;4706;41.844;26.082;2024-01-10T02:49:31;102144.25;;;2.62;56.04
9335;BME280;4706;41.844;26.082;2024-01-10T02:51:57;102131.50;;;2.63;54.90
9335;BME280;4706;41.844;26.082;2024-01-10T02:54:23;102137.97;;;2.68;54.53
9335;BME280;4706;41.844;26.082;2024-01-10T02:56:48;102111.88;;;2.41;51.40
9335;BME280;4706;41.844;26.082;2024-01-10T02:59:14;102135.06;;;2.57;53.24
9335;BME280;4706;41.844;26.082;2024-01-10T03:01:39;102103.09;;;2.32;54.16
9335;BME280;4706;41.844;26.082;2024-01-10T03:04:05;102133.16;;;2.51;52.58
9335;BME280;4706;41.844;26.082;2024-01-10T03:06:31;102139.66;;;2.56;52.51
9335;BME280;4706;41.844;26.082;2024-01-10T03:08:56;102131.69;;;2.48;54.73
9335;BME280;4706;41.844;26.082;2024-01-10T03:11:22;102140.28;;;2.58;54.03
9335;BME280;4706;41.844;26.082;2024-01-10T03:13:49;102130.88;;;2.61;53.36
9335;BME280;4706;41.844;26.082;2024-01-10T03:16:15;102144.66;;;2.59;53.99
9335;BME280;4706;41.844;26.082;2024-01-10T03:18:41;102132.97;;;2.52;52.60
9335;BME280;4706;41.844;26.082;2024-01-10T03:21:06;102141.34;;;2.57;54.32
9335;BME280;4706;41.844;26.082;2024-01-10T03:23:32;102143.84;;;2.65;54.60
9335;BME280;4706;41.844;26.082;2024-01-10T03:25:57;102145.06;;;2.70;54.48
9335;BME280;4706;41.844;26.082;2024-01-10T03:28:23;102147.59;;;2.71;54.48
9335;BME280;4706;41.844;26.082;2024-01-10T03:30:49;102157.59;;;2.71;54.11
9335;BME280;4706;41.844;26.082;2024-01-10T03:33:15;102159.06;;;2.66;52.57
9335;BME280;4706;41.844;26.082;2024-01-10T03:35:41;102140.06;;;2.53;50.63
9335;BME280;4706;41.844;26.082;2024-01-10T03:38:07;102152.19;;;2.57;52.95
9335;BME280;4706;41.844;26.082;2024-01-10T03:40:34;102150.31;;;2.58;53.31
9335;BME280;4706;41.844;26.082;2024-01-10T03:42:59;102156.34;;;2.66;53.42
9335;BME280;4706;41.844;26.082;2024-01-10T03:45:25;102162.63;;;2.67;52.37
9335;BME280;4706;41.844;26.082;2024-01-10T03:47:50;102156.78;;;2.70;53.20
9335;BME280;4706;41.844;26.082;2024-01-10T03:50:18;102164.94;;;2.77;51.32
9335;BME280;4706;41.844;26.082;2024-01-10T03:52:45;102166.41;;;2.79;50.60
9335;BME280;4706;41.844;26.082;2024-01-10T03:55:12;102167.03;;;2.68;52.30
9335;BME280;4706;41.844;26.082;2024-01-10T03:57:41;102161.38;;;2.63;52.56
9335;BME280;4706;41.844;26.082;2024-01-10T04:00:08;102175.41;;;2.60;50.63
9335;BME280;4706;41.844;26.082;2024-01-10T04:02:36;102179.97;;;2.66;48.68
9335;BME280;4706;41.844;26.082;2024-01-10T04:05:01;102184.38;;;2.67;49.48
9335;BME280;4706;41.844;26.082;2024-01-10T04:07:27;102197.75;;;2.68;48.05
9335;BME280;4706;41.844;26.082;2024-01-10T04:09:53;102191.91;;;2.72;48.24
9335;BME280;4706;41.844;26.082;2024-01-10T04:12:19;102185.22;;;2.67;47.34
9335;BME280;4706;41.844;26.082;2024-01-10T04:14:44;102195.44;;;2.59;47.72
9335;BME280;4706;41.844;26.082;2024-01-10T04:17:10;102211.97;;;2.57;46.42
9335;BME280;4706;41.844;26.082;2024-01-10T04:19:35;102196.69;;;2.50;47.65
9335;BME280;4706;41.844;26.082;2024-01-10T04:22:01;102188.94;;;2.47;47.75
9335;BME280;4706;41.844;26.082;2024-01-10T04:24:27;102205.03;;;2.55;45.73
9335;BME280;4706;41.844;26.082;2024-01-10T04:26:52;102209.84;;;2.59;46.12
9335;BME280;4706;41.844;26.082;2024-01-10T04:29:18;102196.91;;;2.55;46.99
9335;BME280;4706;41.844;26.082;2024-01-10T04:31:43;102200.25;;;2.57;47.74
9335;BME280;4706;41.844;26.082;2024-01-10T04:34:09;102217.81;;;2.67;46.42
9335;BME280;4706;41.844;26.082;2024-01-10T04:36:34;102215.28;;;2.66;46.42
9335;BME280;4706;41.844;26.082;2024-01-10T04:39:00;102229.72;;;2.66;47.02
9335;BME280;4706;41.844;26.082;2024-01-10T04:41:26;102222.41;;;2.67;47.55
9335;BME280;4706;41.844;26.082;2024-01-10T04:43:52;102218.63;;;2.55;47.38
9335;BME280;4706;41.844;26.082;2024-01-10T04:46:17;102232.44;;;2.66;47.15
9335;BME280;4706;41.844;26.082;2024-01-10T04:48:43;102233.88;;;2.62;47.49
9335;BME280;4706;41.844;26.082;2024-01-10T04:51:08;102230.56;;;2.60;45.44
9335;BME280;4706;41.844;26.082;2024-01-10T04:53:34;102242.06;;;2.56;47.74
9335;BME280;4706;41.844;26.082;2024-01-10T04:56:00;102233.06;;;2.49;48.60
9335;BME280;4706;41.844;26.082;2024-01-10T04:58:26;102233.03;;;2.42;48.96
9335;BME280;4706;41.844;26.082;2024-01-10T05:00:52;102239.94;;;2.51;47.46
9335;BME280;4706;41.844;26.082;2024-01-10T05:03:17;102235.56;;;2.50;47.51
9335;BME280;4706;41.844;26.082;2024-01-10T05:05:43;102245.38;;;2.58;48.01
9335;BME280;4706;41.844;26.082;2024-01-10T05:08:08;102238.47;;;2.55;46.54
9335;BME280;4706;41.844;26.082;2024-01-10T05:10:34;102249.34;;;2.49;48.23
9335;BME280;4706;41.844;26.082;2024-01-10T05:12:59;102262.50;;;2.52;48.21
9335;BME280;4706;41.844;26.082;2024-01-10T05:15:25;102261.22;;;2.48;47.39
9335;BME280;4706;41.844;26.082;2024-01-10T05:17:51;102269.19;;;2.49;48.28
9335;BME280;4706;41.844;26.082;2024-01-10T05:20:16;102273.16;;;2.53;47.11
9335;BME280;4706;41.844;26.082;2024-01-10T05:22:42;102287.38;;;2.55;47.23
9335;BME280;4706;41.844;26.082;2024-01-10T05:25:08;102292.19;;;2.53;46.66
9335;BME280;4706;41.844;26.082;2024-01-10T05:27:34;102289.41;;;2.40;48.03
9335;BME280;4706;41.844;26.082;2024-01-10T05:29:59;102297.34;;;2.35;47.78
9335;BME280;4706;41.844;26.082;2024-01-10T05:32:26;102301.94;;;2.34;46.61
9335;BME280;4706;41.844;26.082;2024-01-10T05:34:55;102296.69;;;2.33;46.32
9335;BME280;4706;41.844;26.082;2024-01-10T05:37:20;102285.22;;;2.31;47.00
9335;BME280;4706;41.844;26.082;2024-01-10T05:39:47;102290.63;;;2.24;47.00
9335;BME280;4706;41.844;26.082;2024-01-10T05:42:13;102302.50;;;2.16;45.95
9335;BME280;4706;41.844;26.082;2024-01-10T05:44:39;102302.03;;;2.06;46.17
9335;BME280;4706;41.844;26.082;2024-01-10T05:47:05;102291.34;;;1.98;46.91
9335;BME280;4706;41.844;26.082;2024-01-10T05:49:31;102295.31;;;2.02;46.84
9335;BME280;4706;41.844;26.082;2024-01-10T05:51:58;102293.03;;;2.06;46.23
9335;BME280;4706;41.844;26.082;2024-01-10T05:54:23;102299.75;;;2.03;46.47
9335;BME280;4706;41.844;26.082;2024-01-10T05:56:49;102308.72;;;2.04;46.50
9335;BME280;4706;41.844;26.082;2024-01-10T05:59:15;102312.06;;;1.71;45.55
9335;BME280;4706;41.844;26.082;2024-01-10T06:01:42;102314.00;;;1.77;46.62
9335;BME280;4706;41.844;26.082;2024-01-10T06:04:08;102310.75;;;1.60;46.15
9335;BME280;4706;41.844;26.082;2024-01-10T06:06:34;102319.13;;;1.65;46.42
9335;BME280;4706;41.844;26.082;2024-01-10T06:09:00;102313.75;;;1.72;46.21
9335;BME280;4706;41.844;26.082;2024-01-10T06:11:25;102306.88;;;1.76;47.05
9335;BME280;4706;41.844;26.082;2024-01-10T06:13:51;102317.88;;;1.96;48.08
9335;BME280;4706;41.844;26.082;2024-01-10T06:16:16;102319.41;;;2.12;47.52
9335;BME280;4706;41.844;26.082;2024-01-10T06:18:42;102335.66;;;2.05;46.62
9335;BME280;4706;41.844;26.082;2024-01-10T06:21:08;102327.91;;;2.02;46.19
9335;BME280;4706;41.844;26.082;2024-01-10T06:23:33;102324.47;;;1.87;45.90
9335;BME280;4706;41.844;26.082;2024-01-10T06:25:59;102338.13;;;2.07;47.98
9335;BME280;4706;41.844;26.082;2024-01-10T06:28:24;102322.72;;;2.07;48.44
9335;BME280;4706;41.844;26.082;2024-01-10T06:30:50;102325.69;;;2.19;48.41
9335;BME280;4706;41.844;26.082;2024-01-10T06:33:15;102324.88;;;2.18;48.82
9335;BME280;4706;41.844;26.082;2024-01-10T06:35:42;102331.38;;;2.31;47.93
9335;BME280;4706;41.844;26.082;2024-01-10T06:38:10;102339.22;;;2.12;46.97
9335;BME280;4706;41.844;26.082;2024-01-10T06:40:36;102341.78;;;2.21;47.49
9335;BME280;4706;41.844;26.082;2024-01-10T06:43:03;102338.00;;;2.15;47.26
9335;BME280;4706;41.844;26.082;2024-01-10T06:45:29;102346.84;;;2.30;48.06
9335;BME280;4706;41.844;26.082;2024-01-10T06:47:55;102337.72;;;2.45;47.63
9335;BME280;4706;41.844;26.082;2024-01-10T06:50:20;102341.63;;;2.35;47.38
9335;BME280;4706;41.844;26.082;2024-01-10T06:52:47;102337.16;;;2.14;47.31
9335;BME280;4706;41.844;26.082;2024-01-10T06:55:13;102347.03;;;2.22;47.91
9335;BME280;4706;41.844;26.082;2024-01-10T06:57:39;102343.72;;;2.33;51.11
9335;BME280;4706;41.844;26.082;2024-01-10T07:00:05;102354.16;;;2.36;48.89
9335;BME280;4706;41.844;26.082;2024-01-10T07:02:39;102347.19;;;2.21;48.22
9335;BME280;4706;41.844;26.082;2024-01-10T07:05:08;102358.28;;;2.19;48.16
9335;BME280;4706;41.844;26.082;2024-01-10T07:07:34;102357.19;;;2.13;48.03
9335;BME280;4706;41.844;26.082;2024-01-10T07:10:03;102334.41;;;2.08;48.56
9335;BME280;4706;41.844;26.082;2024-01-10T07:12:31;102352.63;;;2.21;47.72
9335;BME280;4706;41.844;26.082;2024-01-10T07:14:57;102350.59;;;1.94;46.88
9335;BME280;4706;41.844;26.082;2024-01-10T07:17:23;102345.44;;;2.06;47.69
9335;BME280;4706;41.844;26.082;2024-01-10T07:19:48;102345.50;;;2.13;46.97
9335;BME280;4706;41.844;26.082;2024-01-10T07:22:14;102348.66;;;2.16;47.21
9335;BME280;4706;41.844;26.082;2024-01-10T07:24:40;102353.16;;;2.03;47.52
9335;BME280;4706;41.844;26.082;2024-01-10T07:27:05;102362.34;;;2.02;47.92
9335;BME280;4706;41.844;26.082;2024-01-10T07:29:32;102349.78;;;1.94;48.36
9335;BME280;4706;41.844;26.082;2024-01-10T07:31:57;102357.97;;;2.01;48.46
9335;BME280;4706;41.844;26.082;2024-01-10T07:34:23;102355.13;;;2.15;49.63
9335;BME280;4706;41.844;26.082;2024-01-10T07:36:48;102360.84;;;2.34;51.24
9335;BME280;4706;41.844;26.082;2024-01-10T07:39:14;102357.13;;;2.41;49.57
9335;BME280;4706;41.844;26.082;2024-01-10T07:41:46;102352.56;;;2.49;48.21
9335;BME280;4706;41.844;26.082;2024-01-10T07:44:12;102352.97;;;2.46;47.74
9335;BME280;4706;41.844;26.082;2024-01-10T07:46:37;102340.84;;;2.41;47.14
9335;BME280;4706;41.844;26.082;2024-01-10T07:49:04;102357.78;;;2.50;48.01
9335;BME280;4706;41.844;26.082;2024-01-10T07:51:30;102365.72;;;2.52;48.16
9335;BME280;4706;41.844;26.082;2024-01-10T07:53:56;102359.44;;;2.45;47.92
9335;BME280;4706;41.844;26.082;2024-01-10T07:56:22;102363.19;;;2.43;46.75
9335;BME280;4706;41.844;26.082;2024-01-10T07:58:47;102370.31;;;2.45;45.72
9335;BME280;4706;41.844;26.082;2024-01-10T08:01:14;102368.38;;;2.38;45.79
9335;BME280;4706;41.844;26.082;2024-01-10T08:03:40;102366.06;;;2.35;45.64
9335;BME280;4706;41.844;26.082;2024-01-10T08:06:06;102361.44;;;2.29;44.86
9335;BME280;4706;41.844;26.082;2024-01-10T08:08:32;102356.44;;;2.26;44.61
9335;BME280;4706;41.844;26.082;2024-01-10T08:10:57;102361.03;;;2.32;44.97
9335;BME280;4706;41.844;26.082;2024-01-10T08:13:23;102370.72;;;2.48;46.51
9335;BME280;4706;41.844;26.082;2024-01-10T08:15:49;102372.44;;;2.62;46.58
9335;BME280;4706;41.844;26.082;2024-01-10T08:18:14;102374.78;;;2.72;46.00
9335;BME280;4706;41.844;26.082;2024-01-10T08:20:40;102374.19;;;2.83;46.44
9335;BME280;4706;41.844;26.082;2024-01-10T08:23:05;102373.97;;;2.85;45.31
9335;BME280;4706;41.844;26.082;2024-01-10T08:25:31;102376.75;;;2.98;46.66
9335;BME280;4706;41.844;26.082;2024-01-10T08:27:57;102377.16;;;3.02;45.29
9335;BME280;4706;41.844;26.082;2024-01-10T08:30:23;102370.44;;;2.91;43.72
9335;BME280;4706;41.844;26.082;2024-01-10T08:32:49;102380.69;;;2.96;44.47
9335;BME280;4706;41.844;26.082;2024-01-10T08:35:15;102371.53;;;3.10;46.25
9335;BME280;4706;41.844;26.082;2024-01-10T08:37:41;102369.44;;;3.05;45.25
9335;BME280;4706;41.844;26.082;2024-01-10T08:40:10;102366.28;;;3.15;46.95
9335;BME280;4706;41.844;26.082;2024-01-10T08:42:38;102366.53;;;3.33;47.18
9335;BME280;4706;41.844;26.082;2024-01-10T08:45:04;102356.28;;;3.35;47.06
9335;BME280;4706;41.844;26.082;2024-01-10T08:47:30;102360.25;;;3.39;48.69
9335;BME280;4706;41.844;26.082;2024-01-10T08:50:03;102367.38;;;3.54;48.16
9335;BME280;4706;41.844;26.082;2024-01-10T08:52:33;102368.63;;;3.58;48.45
9335;BME280;4706;41.844;26.082;2024-01-10T08:54:58;102354.59;;;3.68;48.21
9335;BME280;4706;41.844;26.082;2024-01-10T08:57:24;102358.97;;;3.75;47.56
9335;BME280;4706;41.844;26.082;2024-01-10T08:59:52;102357.72;;;3.84;47.62
9335;BME280;4706;41.844;26.082;2024-01-10T09:02:17;102358.56;;;3.78;46.07
9335;BME280;4706;41.844;26.082;2024-01-10T09:04:43;102341.63;;;3.76;45.01
9335;BME280;4706;41.844;26.082;2024-01-10T09:07:09;102354.56;;;3.87;46.86
9335;BME280;4706;41.844;26.082;2024-01-10T09:09:35;102346.78;;;3.91;47.67
9335;BME280;4706;41.844;26.082;2024-01-10T09:12:00;102337.78;;;3.97;46.76
9335;BME280;4706;41.844;26.082;2024-01-10T09:14:26;102341.97;;;4.06;45.19
9335;BME280;4706;41.844;26.082;2024-01-10T09:16:51;102338.19;;;4.01;44.84
9335;BME280;4706;41.844;26.082;2024-01-10T09:19:18;102334.38;;;4.15;45.84
9335;BME280;4706;41.844;26.082;2024-01-10T09:21:43;102336.84;;;4.30;47.26
9335;BME280;4706;41.844;26.082;2024-01-10T09:24:09;102324.06;;;4.30;46.10
9335;BME280;4706;41.844;26.082;2024-01-10T09:26:36;102335.78;;;4.37;44.36
9335;BME280;4706;41.844;26.082;2024-01-10T09:29:02;102327.34;;;4.46;44.94
9335;BME280;4706;41.844;26.082;2024-01-10T09:31:27;102308.94;;;4.41;43.64
9335;BME280;4706;41.844;26.082;2024-01-10T09:33:53;102320.38;;;4.56;43.19
9335;BME280;4706;41.844;26.082;2024-01-10T09:36:19;102315.13;;;4.55;42.83
9335;BME280;4706;41.844;26.082;2024-01-10T09:38:44;102302.81;;;4.46;43.45
9335;BME280;4706;41.844;26.082;2024-01-10T09:41:10;102303.19;;;4.56;43.63
9335;BME280;4706;41.844;26.082;2024-01-10T09:43:37;102316.41;;;4.59;42.17
9335;BME280;4706;41.844;26.082;2024-01-10T09:46:03;102315.91;;;4.69;44.46
9335;BME280;4706;41.844;26.082;2024-01-10T09:48:32;102315.03;;;4.75;45.25
9335;BME280;4706;41.844;26.082;2024-01-10T09:50:58;102308.13;;;4.72;44.08
9335;BME280;4706;41.844;26.082;2024-01-10T09:53:25;102317.38;;;4.71;42.17
9335;BME280;4706;41.844;26.082;2024-01-10T09:55:55;102311.47;;;4.74;43.44
9335;BME280;4706;41.844;26.082;2024-01-10T09:58:25;102308.88;;;4.86;43.13
9335;BME280;4706;41.844;26.082;2024-01-10T10:00:51;102313.66;;;4.91;42.84
9335;BME280;4706;41.844;26.082;2024-01-10T10:03:18;102306.56;;;4.90;41.43
9335;BME280;4706;41.844;26.082;2024-01-10T10:05:44;102306.47;;;4.96;41.25
9335;BME280;4706;41.844;26.082;2024-01-10T10:08:11;102308.84;;;5.18;40.87
9335;BME280;4706;41.844;26.082;2024-01-10T10:10:38;102299.16;;;4.97;40.80
9335;BME280;4706;41.844;26.082;2024-01-10T10:13:10;102300.94;;;5.09;40.38
9335;BME280;4706;41.844;26.082;2024-01-10T10:16:03;102296.94;;;5.12;42.64
9335;BME280;4706;41.844;26.082;2024-01-10T10:18:29;102302.72;;;5.22;41.92
9335;BME280;4706;41.844;26.082;2024-01-10T10:21:12;102301.69;;;5.23;40.89
9335;BME280;4706;41.844;26.082;2024-01-10T10:23:40;102288.69;;;5.19;38.72
9335;BME280;4706;41.844;26.082;2024-01-10T10:26:16;102279.91;;;5.17;39.65
9335;BME280;4706;41.844;26.082;2024-01-10T10:28:46;102284.53;;;5.16;38.77
9335;BME280;4706;41.844;26.082;2024-01-10T10:31:12;102282.84;;;5.15;38.43
9335;BME280;4706;41.844;26.082;2024-01-10T10:33:39;102276.88;;;5.00;39.61
9335;BME280;4706;41.844;26.082;2024-01-10T10:36:05;102271.75;;;4.85;40.35
9335;BME280;4706;41.844;26.082;2024-01-10T10:38:31;102268.59;;;4.56;41.05
9335;BME280;4706;41.844;26.082;2024-01-10T10:40:58;102267.09;;;4.60;41.93
9335;BME280;4706;41.844;26.082;2024-01-10T10:43:25;102262.72;;;4.84;42.49
9335;BME280;4706;41.844;26.082;2024-01-10T10:45:51;102261.44;;;4.94;42.41
9335;BME280;4706;41.844;26.082;2024-01-10T10:48:18;102260.81;;;5.17;43.43
9335;BME280;4706;41.844;26.082;2024-01-10T10:51:10;102256.81;;;5.19;43.08
9335;BME280;4706;41.844;26.082;2024-01-10T10:53:39;102258.19;;;5.28;41.88
9335;BME280;4706;41.844;26.082;2024-01-10T10:56:09;102251.75;;;5.23;42.38
9335;BME280;4706;41.844;26.082;2024-01-10T10:58:36;102238.59;;;5.13;41.68
9335;BME280;4706;41.844;26.082;2024-01-10T11:01:07;102245.66;;;5.21;41.06
9335;BME280;4706;41.844;26.082;2024-01-10T11:03:38;102251.53;;;5.43;41.42
9335;BME280;4706;41.844;26.082;2024-01-10T11:06:05;102240.47;;;5.56;39.99
9335;BME280;4706;41.844;26.082;2024-01-10T11:08:42;102239.56;;;5.44;40.31
9335;BME280;4706;41.844;26.082;2024-01-10T11:20:18;102224.06;;;6.29;42.54
9335;BME280;4706;41.844;26.082;2024-01-10T11:23:11;102229.13;;;6.44;41.22
9335;BME280;4706;41.844;26.082;2024-01-10T11:25:42;102219.66;;;6.59;40.79
9335;BME280;4706;41.844;26.082;2024-01-10T11:28:08;102223.66;;;6.44;41.07
9335;BME280;4706;41.844;26.082;2024-01-10T11:30:37;102222.81;;;6.44;41.82
9335;BME280;4706;41.844;26.082;2024-01-10T11:33:32;102220.75;;;6.39;40.31
9335;BME280;4706;41.844;26.082;2024-01-10T11:36:20;102214.09;;;6.35;39.85
9335;BME280;4706;41.844;26.082;2024-01-10T11:38:56;102214.44;;;6.27;40.62
9335;BME280;4706;41.844;26.082;2024-01-10T11:41:30;102212.28;;;6.17;40.93
9335;BME280;4706;41.844;26.082;2024-01-10T11:46:46;102198.25;;;6.14;40.00
9335;BME280;4706;41.844;26.082;2024-01-10T11:49:15;102205.16;;;5.98;40.58
9335;BME280;4706;41.844;26.082;2024-01-10T11:51:45;102199.69;;;5.98;39.38
9335;BME280;4706;41.844;26.082;2024-01-10T11:54:11;102201.66;;;5.91;38.90
9335;BME280;4706;41.844;26.082;2024-01-10T11:56:41;102193.75;;;5.82;38.50
9335;BME280;4706;41.844;26.082;2024-01-10T11:59:08;102191.41;;;5.86;39.56
9335;BME280;4706;41.844;26.082;2024-01-10T12:01:36;102197.25;;;5.71;39.20
9335;BME280;4706;41.844;26.082;2024-01-10T12:04:03;102200.59;;;5.73;38.06
9335;BME280;4706;41.844;26.082;2024-01-10T12:06:30;102196.13;;;5.79;40.76
9335;BME280;4706;41.844;26.082;2024-01-10T12:08:56;102192.03;;;5.88;41.35
9335;BME280;4706;41.844;26.082;2024-01-10T12:11:23;102187.72;;;5.80;43.57
9335;BME280;4706;41.844;26.082;2024-01-10T12:13:48;102182.94;;;5.57;42.38
9335;BME280;4706;41.844;26.082;2024-01-10T12:16:14;102189.81;;;5.60;42.49
9335;BME280;4706;41.844;26.082;2024-01-10T12:18:42;102182.19;;;5.50;44.35
9335;BME280;4706;41.844;26.082;2024-01-10T12:21:07;102184.84;;;5.57;42.85
9335;BME280;4706;41.844;26.082;2024-01-10T12:23:38;102184.38;;;5.60;44.59
9335;BME280;4706;41.844;26.082;2024-01-10T12:26:09;102174.91;;;5.63;42.66
9335;BME280;4706;41.844;26.082;2024-01-10T12:28:35;102175.81;;;5.56;41.68
9335;BME280;4706;41.844;26.082;2024-01-10T12:31:03;102171.28;;;5.50;42.60
9335;BME280;4706;41.844;26.082;2024-01-10T12:33:28;102182.19;;;5.69;42.54
9335;BME280;4706;41.844;26.082;2024-01-10T12:36:08;102180.28;;;5.69;42.52
9335;BME280;4706;41.844;26.082;2024-01-10T12:38:35;102173.63;;;5.65;44.15
9335;BME280;4706;41.844;26.082;2024-01-10T12:41:01;102173.69;;;5.77;43.51
9335;BME280;4706;41.844;26.082;2024-01-10T12:43:27;102173.81;;;5.82;44.75
9335;BME280;4706;41.844;26.082;2024-01-10T12:48:32;102174.50;;;5.96;44.92
9335;BME280;4706;41.844;26.082;2024-01-10T12:51:10;102155.16;;;5.97;45.70
9335;BME280;4706;41.844;26.082;2024-01-10T12:53:41;102175.31;;;6.15;44.50
9335;BME280;4706;41.844;26.082;2024-01-10T12:56:08;102171.19;;;6.36;42.88
9335;BME280;4706;41.844;26.082;2024-01-10T12:58:35;102171.38;;;6.52;43.25
9335;BME280;4706;41.844;26.082;2024-01-10T13:01:05;102185.56;;;6.73;40.80
9335;BME280;4706;41.844;26.082;2024-01-10T13:03:30;102175.47;;;6.85;42.02
9335;BME280;4706;41.844;26.082;2024-01-10T13:05:56;102178.59;;;7.00;40.14
9335;BME280;4706;41.844;26.082;2024-01-10T13:08:21;102182.97;;;7.13;41.27
9335;BME280;4706;41.844;26.082;2024-01-10T13:10:48;102185.13;;;7.23;41.63
9335;BME280;4706;41.844;26.082;2024-01-10T13:13:14;102183.19;;;7.35;40.33
9335;BME280;4706;41.844;26.082;2024-01-10T13:15:40;102184.25;;;7.46;39.04
9335;BME280;4706;41.844;26.082;2024-01-10T13:18:08;102186.63;;;7.54;38.53
9335;BME280;4706;41.844;26.082;2024-01-10T13:20:35;102187.72;;;7.53;39.77
9335;BME280;4706;41.844;26.082;2024-01-10T13:23:01;102184.25;;;7.58;39.21